Time;durP1;ratioP1;P1;durP2;ratioP2;P2;SDS_P1;SDS_P2;PMS_P1;PMS_P2;Temp;Humidity;BMP_temperature;BMP_pressure;BME280_temperature;BME280_humidity;BME280_pressure;Samples;Min_cycle;Max_cycle;Signal;HPM_P1;HPM_P2
2020/12/15 00:02:21;;;;;;;1.25;0.90;;;11.80;71.60;;;;;;4982500;28;20497;-78
2020/12/15 00:04:46;;;;;;;1.10;1.00;;;11.80;71.70;;;;;;4981141;28;20058;-77
2020/12/15 00:07:12;;;;;;;2.22;1.00;;;11.80;71.70;;;;;;4987003;28;20034;-78
2020/12/15 00:09:37;;;;;;;1.33;0.85;;;11.70;71.60;;;;;;4985865;28;20042;-78
2020/12/15 00:12:03;;;;;;;1.52;1.10;;;11.70;71.70;;;;;;4986174;28;20033;-77
2020/12/15 00:14:28;;;;;;;1.20;1.08;;;11.70;71.70;;;;;;4978391;28;20161;-78
2020/12/15 00:16:58;;;;;;;2.03;1.02;;;11.70;71.80;;;;;;4988641;28;20109;-77
2020/12/15 00:19:24;;;;;;;1.80;1.23;;;11.70;71.90;;;;;;4981573;28;20039;-78
2020/12/15 00:21:49;;;;;;;1.85;1.27;;;11.70;71.90;;;;;;4968216;28;20104;-77
2020/12/15 00:24:15;;;;;;;1.02;0.70;;;11.80;72.00;;;;;;4981689;28;20108;-77
2020/12/15 00:26:40;;;;;;;3.00;0.88;;;11.70;71.90;;;;;;4984264;28;20045;-78
2020/12/15 00:29:06;;;;;;;1.83;1.00;;;11.70;71.90;;;;;;4985911;28;20031;-77
2020/12/15 00:31:35;;;;;;;1.08;1.00;;;11.70;71.90;;;;;;4985595;28;20026;-77
2020/12/15 00:34:03;;;;;;;1.30;0.95;;;11.80;72.00;;;;;;4984524;28;20559;-78
2020/12/15 00:36:28;;;;;;;1.40;1.05;;;11.80;72.00;;;;;;4984361;28;20060;-78
2020/12/15 00:38:54;;;;;;;2.03;1.38;;;11.80;72.00;;;;;;4986793;28;20062;-77
2020/12/15 00:41:19;;;;;;;1.33;1.23;;;11.80;72.00;;;;;;4986608;28;20034;-78
2020/12/15 00:43:45;;;;;;;2.42;1.60;;;11.70;71.90;;;;;;4982115;28;20042;-77
2020/12/15 00:46:14;;;;;;;1.50;1.17;;;11.70;71.90;;;;;;4985146;28;20065;-77
2020/12/15 00:48:41;;;;;;;2.05;1.50;;;11.70;71.90;;;;;;4983424;28;20031;-77
2020/12/15 00:51:06;;;;;;;2.25;1.17;;;11.70;72.00;;;;;;4986231;28;20037;-78
2020/12/15 00:53:32;;;;;;;1.58;1.00;;;11.80;72.10;;;;;;4983280;28;20042;-78
2020/12/15 00:55:57;;;;;;;1.88;1.33;;;11.80;72.10;;;;;;4967547;28;20034;-77
2020/12/15 00:58:23;;;;;;;1.60;1.02;;;11.80;72.10;;;;;;4983036;28;20053;-77
2020/12/15 01:00:49;;;;;;;1.58;1.10;;;11.80;72.00;;;;;;4986353;28;20034;-78
2020/12/15 01:03:14;;;;;;;2.20;1.20;;;11.80;72.00;;;;;;4983919;28;20026;-78
2020/12/15 01:05:40;;;;;;;2.30;1.40;;;11.80;71.90;;;;;;4984172;28;20037;-78
2020/12/15 01:08:05;;;;;;;1.88;1.30;;;11.80;71.90;;;;;;4985763;28;20061;-79
2020/12/15 01:10:31;;;;;;;2.63;0.93;;;11.80;71.90;;;;;;4986303;28;20034;-78
2020/12/15 01:12:56;;;;;;;1.48;1.02;;;11.80;71.90;;;;;;4983985;28;20516;-79
2020/12/15 01:15:22;;;;;;;1.67;1.10;;;11.80;71.90;;;;;;4984252;28;20040;-78
2020/12/15 01:17:47;;;;;;;1.08;0.90;;;11.80;71.80;;;;;;4985053;28;20050;-79
2020/12/15 01:20:13;;;;;;;1.00;0.90;;;11.80;71.70;;;;;;4985234;28;20037;-79
2020/12/15 01:22:38;;;;;;;1.02;0.90;;;11.80;71.70;;;;;;4985864;28;20398;-78
2020/12/15 01:25:04;;;;;;;1.42;0.95;;;11.80;71.60;;;;;;4989311;28;20397;-78
2020/12/15 01:27:29;;;;;;;1.40;0.82;;;11.80;71.60;;;;;;4984912;28;20038;-77
2020/12/15 01:29:55;;;;;;;0.65;0.60;;;11.70;71.60;;;;;;4982814;28;20117;-79
2020/12/15 01:32:20;;;;;;;1.10;0.82;;;11.80;71.60;;;;;;4985796;28;20030;-78
2020/12/15 01:34:46;;;;;;;1.00;0.80;;;11.80;71.60;;;;;;4982449;28;20128;-79
2020/12/15 01:37:11;;;;;;;0.88;0.70;;;11.70;71.60;;;;;;4982628;28;20037;-79
2020/12/15 01:39:37;;;;;;;1.33;1.00;;;11.80;71.70;;;;;;4968767;28;21496;-78
2020/12/15 01:42:02;;;;;;;0.77;0.73;;;11.70;71.60;;;;;;4978584;28;20030;-78
2020/12/15 01:44:28;;;;;;;0.88;0.88;;;11.70;71.50;;;;;;4980662;28;20952;-79
2020/12/15 01:46:53;;;;;;;1.02;0.82;;;11.70;71.50;;;;;;4966308;28;20041;-78
2020/12/15 01:49:19;;;;;;;1.17;0.90;;;11.60;71.40;;;;;;4982927;28;20042;-78
2020/12/15 01:51:45;;;;;;;1.20;1.10;;;11.70;71.40;;;;;;4984454;28;20086;-79
2020/12/15 01:54:12;;;;;;;1.10;0.95;;;11.60;71.30;;;;;;4985607;28;20535;-79
2020/12/15 01:56:37;;;;;;;1.00;0.90;;;11.60;71.40;;;;;;4984029;28;20038;-77
2020/12/15 01:59:04;;;;;;;0.90;0.88;;;11.60;71.50;;;;;;4979923;28;20062;-77
2020/12/15 02:01:40;;;;;;;1.00;0.93;;;11.50;71.50;;;;;;4983946;28;20074;-77
2020/12/15 02:04:06;;;;;;;0.70;0.70;;;11.50;71.60;;;;;;4978171;28;20039;-78
2020/12/15 02:06:31;;;;;;;1.10;0.80;;;11.60;71.80;;;;;;4980482;28;20074;-77
2020/12/15 02:08:58;;;;;;;0.90;0.68;;;11.60;71.80;;;;;;4977737;28;20093;-78
2020/12/15 02:11:24;;;;;;;1.33;1.10;;;11.50;71.80;;;;;;4983896;28;20077;-79
2020/12/15 02:13:50;;;;;;;1.17;0.90;;;11.50;71.80;;;;;;4984504;28;20754;-79
2020/12/15 02:16:15;;;;;;;0.90;0.70;;;11.50;71.90;;;;;;4984372;28;20040;-78
2020/12/15 02:18:41;;;;;;;1.30;1.10;;;11.50;71.90;;;;;;4982877;28;20038;-78
2020/12/15 02:21:07;;;;;;;1.73;0.70;;;11.50;71.80;;;;;;4973333;28;20047;-79
2020/12/15 02:23:33;;;;;;;2.17;1.13;;;11.40;71.70;;;;;;4976482;28;20069;-78
2020/12/15 02:26:09;;;;;;;1.63;0.80;;;11.50;71.90;;;;;;4978185;28;20030;-76
2020/12/15 02:28:35;;;;;;;0.93;0.80;;;11.50;71.90;;;;;;4977442;28;20453;-77
2020/12/15 02:31:01;;;;;;;0.80;0.70;;;11.50;71.90;;;;;;4983474;28;20026;-78
2020/12/15 02:33:27;;;;;;;0.95;0.85;;;11.60;72.00;;;;;;4984454;28;20030;-78
2020/12/15 02:35:52;;;;;;;0.82;0.60;;;11.50;72.00;;;;;;4976857;28;20061;-79
2020/12/15 02:38:18;;;;;;;0.98;0.80;;;11.50;72.00;;;;;;4977167;28;20490;-78
2020/12/15 02:40:44;;;;;;;1.08;0.85;;;11.50;72.00;;;;;;4985303;28;20042;-78
2020/12/15 02:43:10;;;;;;;0.93;0.70;;;11.50;72.00;;;;;;4982250;28;20027;-78
2020/12/15 02:45:35;;;;;;;1.00;0.82;;;11.60;72.10;;;;;;4980542;28;20042;-77
2020/12/15 02:48:01;;;;;;;1.08;0.98;;;11.50;72.00;;;;;;4982667;28;20026;-78
2020/12/15 02:50:27;;;;;;;1.23;0.73;;;11.50;71.90;;;;;;4974872;28;20030;-78
2020/12/15 02:52:52;;;;;;;0.90;0.80;;;11.50;71.90;;;;;;4974662;28;20489;-78
2020/12/15 02:55:18;;;;;;;0.98;0.77;;;11.50;71.90;;;;;;4985019;28;20453;-78
2020/12/15 02:57:47;;;;;;;1.45;1.25;;;11.50;71.90;;;;;;4979547;28;20030;-78
2020/12/15 03:00:13;;;;;;;0.98;0.70;;;11.40;71.90;;;;;;4979162;28;20034;-78
2020/12/15 03:02:38;;;;;;;1.25;0.80;;;11.50;71.90;;;;;;4985409;28;20061;-77
2020/12/15 03:05:04;;;;;;;1.35;0.88;;;11.50;71.90;;;;;;4981613;28;20117;-78
2020/12/15 03:07:31;;;;;;;0.75;0.70;;;11.60;72.00;;;;;;4977246;28;20117;-78
2020/12/15 03:09:57;;;;;;;1.60;1.10;;;11.40;71.80;;;;;;4985654;28;20110;-78
2020/12/15 03:12:22;;;;;;;0.88;0.82;;;11.40;71.80;;;;;;4983768;28;20054;-77
2020/12/15 03:14:49;;;;;;;1.33;1.00;;;11.40;71.80;;;;;;4990593;28;20437;-78
2020/12/15 03:17:15;;;;;;;1.38;1.08;;;11.40;71.90;;;;;;4990089;28;20038;-78
2020/12/15 03:19:41;;;;;;;0.70;0.68;;;11.40;71.90;;;;;;4981142;28;20038;-78
2020/12/15 03:22:06;;;;;;;1.20;0.98;;;11.40;72.00;;;;;;4988368;28;20034;-78
2020/12/15 03:24:32;;;;;;;1.08;0.90;;;11.40;72.00;;;;;;4988163;28;20034;-78
2020/12/15 03:26:58;;;;;;;0.95;0.90;;;11.50;72.00;;;;;;4986181;28;20418;-79
2020/12/15 03:29:23;;;;;;;1.08;0.98;;;11.40;71.90;;;;;;4986897;28;20034;-78
2020/12/15 03:31:49;;;;;;;1.05;0.90;;;11.30;71.90;;;;;;4988090;28;20030;-78
2020/12/15 03:34:14;;;;;;;1.10;0.98;;;11.30;71.90;;;;;;4984009;28;20436;-78
2020/12/15 03:36:39;;;;;;;1.27;1.13;;;11.30;71.90;;;;;;4986947;28;20057;-78
2020/12/15 03:39:06;;;;;;;0.90;0.80;;;11.30;72.00;;;;;;4990821;28;20038;-78
2020/12/15 03:41:32;;;;;;;1.25;1.10;;;11.50;72.10;;;;;;4988771;28;20096;-78
2020/12/15 03:43:57;;;;;;;1.10;1.00;;;11.40;72.10;;;;;;4984369;28;20038;-78
2020/12/15 03:46:23;;;;;;;1.00;0.90;;;11.30;72.10;;;;;;4988636;28;20049;-77
2020/12/15 03:48:48;;;;;;;1.40;1.10;;;11.30;72.00;;;;;;4987690;28;20026;-78
2020/12/15 03:51:14;;;;;;;0.80;0.80;;;11.30;72.10;;;;;;4983546;28;20053;-79
2020/12/15 03:53:39;;;;;;;1.17;1.00;;;11.40;72.10;;;;;;4988008;28;20038;-79
2020/12/15 03:56:05;;;;;;;0.98;0.85;;;11.30;72.10;;;;;;4989980;28;20042;-79
2020/12/15 03:58:30;;;;;;;1.40;1.23;;;11.40;72.10;;;;;;4985742;28;20453;-78
2020/12/15 04:00:56;;;;;;;1.20;1.10;;;11.40;72.10;;;;;;4981930;28;20051;-79
2020/12/15 04:03:21;;;;;;;1.48;1.10;;;11.30;72.00;;;;;;4986944;28;20030;-78
2020/12/15 04:05:47;;;;;;;0.88;0.77;;;11.40;72.10;;;;;;4981548;28;20039;-79
2020/12/15 04:08:12;;;;;;;1.15;1.05;;;11.30;72.00;;;;;;4990053;28;20117;-79
2020/12/15 04:10:38;;;;;;;2.42;1.45;;;11.40;72.00;;;;;;4988976;28;20038;-79
2020/12/15 04:13:03;;;;;;;1.10;1.00;;;11.40;72.00;;;;;;4985066;28;20084;-78
2020/12/15 04:15:29;;;;;;;1.17;1.00;;;11.30;72.00;;;;;;4988907;28;20023;-79
2020/12/15 04:17:54;;;;;;;1.67;1.40;;;11.30;72.00;;;;;;4988399;28;20070;-78
2020/12/15 04:20:21;;;;;;;1.30;1.05;;;11.30;71.90;;;;;;4985503;28;20054;-79
2020/12/15 04:22:46;;;;;;;1.15;1.05;;;11.40;71.90;;;;;;4982884;28;20069;-79
2020/12/15 04:25:12;;;;;;;1.30;1.00;;;11.30;71.80;;;;;;4985977;28;20030;-79
2020/12/15 04:27:37;;;;;;;1.17;1.08;;;11.30;71.80;;;;;;4985587;28;20042;-79
2020/12/15 04:30:05;;;;;;;1.30;1.05;;;11.30;71.90;;;;;;4981828;28;20489;-78
2020/12/15 04:32:31;;;;;;;2.17;1.75;;;11.30;71.90;;;;;;4985975;28;20057;-78
2020/12/15 04:34:56;;;;;;;1.23;1.00;;;11.30;71.90;;;;;;4978747;28;20387;-79
2020/12/15 04:37:22;;;;;;;1.08;0.90;;;11.20;71.90;;;;;;4985937;28;20035;-79
2020/12/15 04:39:47;;;;;;;1.55;1.30;;;11.30;72.00;;;;;;4985754;28;20463;-79
2020/12/15 04:42:14;;;;;;;1.20;1.10;;;11.20;72.00;;;;;;4981650;28;20039;-78
2020/12/15 04:44:40;;;;;;;1.17;0.93;;;11.30;72.10;;;;;;4983949;28;20096;-79
2020/12/15 04:47:16;;;;;;;1.98;1.63;;;11.20;72.10;;;;;;4985654;28;20070;-78
2020/12/15 04:50:05;;;;;;;1.73;1.27;;;11.20;72.10;;;;;;4979031;28;20039;-79
2020/12/15 04:52:53;;;;;;;1.00;0.90;;;11.30;72.70;;;;;;4984959;28;20033;-78
2020/12/15 04:55:23;;;;;;;1.13;0.90;;;11.20;72.20;;;;;;4985398;28;20038;-79
2020/12/15 04:57:48;;;;;;;1.35;0.90;;;11.20;72.00;;;;;;4984588;28;20041;-78
2020/12/15 05:00:16;;;;;;;1.67;1.17;;;11.20;71.90;;;;;;4984153;28;20039;-78
2020/12/15 05:02:49;;;;;;;1.55;1.10;;;11.40;72.10;;;;;;4974458;28;20109;-78
2020/12/15 05:05:16;;;;;;;1.27;1.10;;;11.20;72.00;;;;;;4979466;28;20045;-79
2020/12/15 05:07:44;;;;;;;1.35;1.20;;;11.20;72.00;;;;;;4987138;28;20042;-79
2020/12/15 05:10:13;;;;;;;1.25;1.00;;;11.30;72.10;;;;;;4991071;28;20034;-79
2020/12/15 05:12:39;;;;;;;1.13;1.02;;;11.10;72.10;;;;;;4988313;28;20043;-79
2020/12/15 05:15:12;;;;;;;1.20;1.10;;;11.20;72.10;;;;;;4986992;28;20520;-79
2020/12/15 05:17:39;;;;;;;1.48;1.38;;;11.10;72.30;;;;;;4985471;28;20535;-79
2020/12/15 05:20:06;;;;;;;1.10;0.80;;;11.10;72.20;;;;;;4977213;28;20062;-78
2020/12/15 05:22:58;;;;;;;1.63;0.90;;;11.20;72.40;;;;;;4984591;28;20030;-78
2020/12/15 05:25:31;;;;;;;1.10;1.00;;;11.10;72.50;;;;;;4980394;28;20047;-78
2020/12/15 05:28:00;;;;;;;0.98;0.90;;;11.20;72.40;;;;;;4975481;28;20030;-79
2020/12/15 05:30:26;;;;;;;1.23;1.00;;;11.10;72.20;;;;;;4985876;28;20027;-79
2020/12/15 05:32:59;;;;;;;0.93;0.90;;;11.10;72.20;;;;;;4984679;28;20028;-78
2020/12/15 05:35:36;;;;;;;1.05;0.95;;;11.20;72.30;;;;;;4978614;28;20038;-79
2020/12/15 05:38:05;;;;;;;1.40;1.30;;;11.20;72.30;;;;;;4977774;28;20413;-79
2020/12/15 05:40:31;;;;;;;1.58;1.27;;;11.20;72.20;;;;;;4982986;28;20505;-78
2020/12/15 05:42:58;;;;;;;1.30;1.20;;;11.20;72.20;;;;;;4980112;28;20034;-78
2020/12/15 05:45:26;;;;;;;1.23;1.13;;;11.20;72.20;;;;;;4980500;28;20121;-79
2020/12/15 05:48:05;;;;;;;1.17;1.08;;;11.20;72.20;;;;;;4982709;28;20038;-79
2020/12/15 05:50:32;;;;;;;1.25;1.15;;;11.10;72.30;;;;;;4976459;28;20034;-77
2020/12/15 05:52:59;;;;;;;1.10;0.85;;;11.10;72.10;;;;;;4983871;28;20054;-79
2020/12/15 05:55:25;;;;;;;0.90;0.80;;;11.20;72.20;;;;;;4984982;28;20457;-78
2020/12/15 05:57:52;;;;;;;1.45;1.30;;;11.20;72.30;;;;;;4979214;28;20041;-78
2020/12/15 06:00:18;;;;;;;1.67;1.25;;;11.10;72.20;;;;;;4981455;28;20034;-79
2020/12/15 06:02:44;;;;;;;1.60;1.25;;;11.10;72.30;;;;;;4980602;28;20488;-79
2020/12/15 06:05:10;;;;;;;1.52;1.40;;;11.10;72.30;;;;;;4978276;28;20513;-79
2020/12/15 06:07:35;;;;;;;1.45;0.98;;;11.10;72.30;;;;;;4983486;28;20441;-78
2020/12/15 06:10:03;;;;;;;1.23;1.13;;;11.10;72.30;;;;;;4982438;28;20405;-79
2020/12/15 06:12:29;;;;;;;1.35;1.20;;;11.10;72.30;;;;;;4982905;28;20073;-78
2020/12/15 06:14:54;;;;;;;1.23;1.13;;;11.10;72.30;;;;;;4980192;28;20066;-79
2020/12/15 06:17:21;;;;;;;1.30;1.20;;;11.10;72.30;;;;;;4983700;28;20519;-78
2020/12/15 06:19:54;;;;;;;1.27;1.15;;;11.10;72.30;;;;;;4975830;28;20489;-78
2020/12/15 06:22:22;;;;;;;2.20;1.30;;;11.10;72.40;;;;;;4964441;28;20133;-78
2020/12/15 06:24:58;;;;;;;1.17;1.08;;;11.10;72.30;;;;;;4985657;28;20536;-79
2020/12/15 06:27:58;;;;;;;1.20;1.08;;;11.10;72.50;;;;;;4986198;28;20034;-78
2020/12/15 06:30:28;;;;;;;1.80;1.20;;;11.20;72.60;;;;;;4981801;28;20045;-79
2020/12/15 06:33:02;;;;;;;1.50;1.10;;;11.10;72.30;;;;;;4976948;28;20034;-79
2020/12/15 06:35:28;;;;;;;2.03;1.40;;;11.10;72.40;;;;;;4975594;28;20145;-78
2020/12/15 06:37:53;;;;;;;1.90;1.23;;;11.10;72.30;;;;;;4985849;28;20458;-79
2020/12/15 06:40:19;;;;;;;2.00;1.38;;;11.10;72.40;;;;;;4983246;28;20038;-78
2020/12/15 06:42:54;;;;;;;1.33;1.17;;;11.10;72.40;;;;;;4984812;28;20046;-80
2020/12/15 06:45:23;;;;;;;1.60;1.20;;;11.10;72.50;;;;;;4985494;28;20054;-78
2020/12/15 06:47:57;;;;;;;1.35;1.15;;;11.10;72.40;;;;;;4987784;28;20038;-79
2020/12/15 06:50:22;;;;;;;1.30;1.20;;;11.10;72.50;;;;;;4972671;28;20035;-80
2020/12/15 06:52:48;;;;;;;1.50;1.23;;;11.10;72.40;;;;;;4980992;28;20034;-78
2020/12/15 06:55:14;;;;;;;1.35;1.17;;;11.20;72.50;;;;;;4979846;28;20073;-78
2020/12/15 06:57:39;;;;;;;1.40;1.20;;;11.10;72.60;;;;;;4963261;28;20110;-78
2020/12/15 07:00:10;;;;;;;1.80;1.65;;;11.10;72.50;;;;;;4975754;28;20034;-79
2020/12/15 07:02:36;;;;;;;;;;;11.20;72.60;;;;;;4974975;28;20037;-79
2020/12/15 07:05:28;;;;;;;1.23;0.93;;;11.20;72.80;;;;;;4974988;28;19914;-78
2020/12/15 07:07:56;;;;;;;2.17;1.80;;;11.20;72.50;;;;;;4973851;28;20030;-79
2020/12/15 07:10:23;;;;;;;1.85;1.40;;;11.20;72.30;;;;;;4980795;28;20081;-79
2020/12/15 07:12:50;;;;;;;2.08;1.58;;;11.10;72.30;;;;;;4972638;28;20117;-78
2020/12/15 07:15:16;;;;;;;1.70;1.38;;;11.20;72.40;;;;;;4970639;28;20109;-78
2020/12/15 07:17:44;;;;;;;1.60;1.17;;;11.30;72.40;;;;;;4977917;28;20031;-79
2020/12/15 07:20:10;;;;;;;1.77;1.52;;;11.20;72.40;;;;;;4971478;28;20042;-77
2020/12/15 07:22:36;;;;;;;1.65;1.55;;;11.10;72.40;;;;;;4981205;28;20026;-77
2020/12/15 07:25:02;;;;;;;2.35;1.50;;;11.20;72.40;;;;;;4978606;28;20027;-77
2020/12/15 07:27:31;;;;;;;2.38;1.77;;;11.20;72.40;;;;;;4979253;28;20490;-77
2020/12/15 07:29:57;;;;;;;3.30;1.42;;;11.20;72.50;;;;;;4979909;28;20046;-77
2020/12/15 07:32:23;;;;;;;1.55;1.33;;;11.20;72.50;;;;;;4980103;28;20030;-77
2020/12/15 07:34:49;;;;;;;1.85;1.50;;;11.10;72.50;;;;;;4971755;28;20045;-78
2020/12/15 07:37:19;;;;;;;1.80;1.50;;;11.10;72.50;;;;;;4978784;28;20031;-77
2020/12/15 07:39:48;;;;;;;1.73;1.35;;;11.10;72.60;;;;;;4982761;28;20612;-77
2020/12/15 07:42:13;;;;;;;1.45;1.35;;;11.20;72.60;;;;;;4979736;28;20042;-79
2020/12/15 07:44:39;;;;;;;1.60;1.40;;;11.20;72.60;;;;;;4974538;28;20096;-76
2020/12/15 07:47:04;;;;;;;1.65;1.35;;;11.20;72.60;;;;;;4979765;28;20719;-78
2020/12/15 07:49:30;;;;;;;1.92;1.67;;;11.10;72.60;;;;;;4973339;28;20059;-77
2020/12/15 07:51:55;;;;;;;2.30;1.70;;;11.20;73.20;;;;;;4977112;28;20088;-75
2020/12/15 07:54:21;;;;;;;1.50;1.40;;;11.20;72.70;;;;;;4980019;28;20034;-77
2020/12/15 07:56:49;;;;;;;1.63;1.50;;;11.20;72.70;;;;;;4980644;28;20030;-77
2020/12/15 07:59:15;;;;;;;2.28;1.70;;;11.30;72.80;;;;;;4975967;28;20042;-77
2020/12/15 08:01:41;;;;;;;1.23;1.10;;;11.30;72.80;;;;;;4985179;28;20085;-77
2020/12/15 08:04:09;;;;;;;1.50;1.30;;;11.20;72.80;;;;;;4979549;28;20600;-76
2020/12/15 08:06:37;;;;;;;1.90;1.42;;;11.30;72.90;;;;;;4981740;28;20096;-77
2020/12/15 08:09:04;;;;;;;2.15;1.67;;;11.40;72.90;;;;;;4983116;28;20489;-77
2020/12/15 08:11:30;;;;;;;1.98;1.65;;;11.30;72.90;;;;;;4982025;28;20033;-76
2020/12/15 08:13:56;;;;;;;1.77;1.30;;;11.30;73.00;;;;;;4979940;28;20049;-77
2020/12/15 08:16:22;;;;;;;1.60;1.35;;;11.30;73.00;;;;;;4983107;28;20080;-77
2020/12/15 08:18:49;;;;;;;1.77;1.50;;;11.40;73.10;;;;;;4982628;28;20030;-77
2020/12/15 08:21:17;;;;;;;1.60;1.20;;;11.40;73.10;;;;;;4979197;28;20053;-77
2020/12/15 08:24:07;;;;;;;2.13;1.80;;;11.40;73.20;;;;;;4980164;28;20124;-77
2020/12/15 08:26:34;;;;;;;1.83;1.42;;;11.40;73.40;;;;;;4979540;28;20125;-78
2020/12/15 08:29:07;;;;;;;1.80;1.27;;;11.50;73.20;;;;;;4978592;28;20401;-78
2020/12/15 08:31:44;;;;;;;1.48;1.38;;;11.50;73.20;;;;;;4982300;28;20077;-76
2020/12/15 08:34:17;;;;;;;2.03;1.83;;;11.50;73.10;;;;;;4977543;28;20490;-80
2020/12/15 08:36:45;;;;;;;1.80;1.60;;;11.50;73.10;;;;;;4981530;28;20101;-79
2020/12/15 08:39:12;;;;;;;2.05;1.63;;;11.60;73.10;;;;;;4983040;28;20037;-77
2020/12/15 08:41:50;;;;;;;2.15;1.40;;;11.60;73.10;;;;;;4980285;28;20505;-77
2020/12/15 08:44:16;;;;;;;1.45;1.23;;;11.60;73.20;;;;;;4978119;28;20038;-78
2020/12/15 08:46:42;;;;;;;1.70;1.60;;;11.70;73.10;;;;;;4983406;28;20039;-78
2020/12/15 08:49:15;;;;;;;1.40;1.15;;;11.60;73.10;;;;;;4977211;28;20027;-77
2020/12/15 08:51:48;;;;;;;1.90;1.70;;;11.70;73.30;;;;;;4982191;28;20038;-78
2020/12/15 08:54:15;;;;;;;1.40;1.30;;;11.80;73.40;;;;;;4982651;28;20037;-77
2020/12/15 08:56:41;;;;;;;1.77;1.40;;;11.70;73.20;;;;;;4980293;28;20066;-77
2020/12/15 08:59:18;;;;;;;1.40;1.23;;;11.80;73.30;;;;;;4978856;28;20433;-77
2020/12/15 09:01:45;;;;;;;1.42;1.30;;;11.70;73.40;;;;;;4978755;28;20413;-77
2020/12/15 09:04:11;;;;;;;1.70;1.48;;;11.80;73.30;;;;;;4975938;28;20023;-77
2020/12/15 09:06:38;;;;;;;2.13;1.30;;;11.80;73.30;;;;;;4979842;28;20031;-77
2020/12/15 09:09:05;;;;;;;1.70;1.35;;;11.80;73.30;;;;;;4981071;28;20516;-77
2020/12/15 09:11:31;;;;;;;2.08;1.88;;;11.80;73.30;;;;;;4981631;28;20034;-76
2020/12/15 09:14:02;;;;;;;1.45;1.30;;;11.80;73.30;;;;;;4982051;28;20413;-77
2020/12/15 09:16:35;;;;;;;1.60;1.50;;;11.90;73.40;;;;;;4979353;28;20638;-76
2020/12/15 09:19:12;;;;;;;1.80;1.60;;;12.00;73.50;;;;;;4978818;28;20034;-77
2020/12/15 09:21:39;;;;;;;2.53;1.80;;;11.90;73.50;;;;;;4982698;28;20088;-77
2020/12/15 09:24:06;;;;;;;3.53;1.50;;;12.00;73.40;;;;;;4982293;28;20128;-77
2020/12/15 09:26:36;;;;;;;1.75;1.60;;;12.00;73.40;;;;;;4979351;28;20058;-76
2020/12/15 09:29:09;;;;;;;1.88;1.75;;;12.00;73.50;;;;;;4979045;28;20062;-77
2020/12/15 09:31:35;;;;;;;2.00;1.73;;;12.10;73.50;;;;;;4978603;28;20039;-77
2020/12/15 09:34:01;;;;;;;2.35;1.40;;;12.10;73.40;;;;;;4982051;28;20026;-77
2020/12/15 09:36:26;;;;;;;2.53;1.63;;;12.10;73.40;;;;;;4980905;28;20034;-76
2020/12/15 09:38:52;;;;;;;1.90;1.70;;;12.10;73.40;;;;;;4978280;28;20049;-77
2020/12/15 09:41:18;;;;;;;1.98;1.70;;;12.20;73.40;;;;;;4983802;28;20034;-77
2020/12/15 09:43:43;;;;;;;1.80;1.42;;;12.20;73.40;;;;;;4981048;28;20105;-78
2020/12/15 09:46:09;;;;;;;2.92;1.65;;;12.20;73.50;;;;;;4978416;28;20497;-77
2020/12/15 09:48:34;;;;;;;1.73;1.50;;;12.30;73.50;;;;;;4983681;28;20116;-78
2020/12/15 09:51:00;;;;;;;1.90;1.38;;;12.30;73.40;;;;;;4978667;28;20031;-77
2020/12/15 09:53:27;;;;;;;1.92;1.65;;;12.30;73.40;;;;;;4978901;28;20049;-77
2020/12/15 09:55:52;;;;;;;1.70;1.55;;;12.30;73.40;;;;;;4983220;28;20667;-77
2020/12/15 09:58:18;;;;;;;1.83;1.70;;;12.40;73.50;;;;;;4981376;28;20054;-76
2020/12/15 10:00:43;;;;;;;1.67;1.40;;;12.40;73.40;;;;;;4976671;28;20122;-77
2020/12/15 10:03:09;;;;;;;2.22;1.75;;;12.40;73.40;;;;;;4980568;28;20393;-78
2020/12/15 10:05:34;;;;;;;1.63;1.52;;;12.50;73.40;;;;;;4970803;28;20030;-76
2020/12/15 10:08:00;;;;;;;2.47;1.65;;;12.40;73.40;;;;;;4980316;28;20092;-77
2020/12/15 10:10:25;;;;;;;2.47;1.92;;;12.40;73.40;;;;;;4978798;28;20109;-77
2020/12/15 10:12:51;;;;;;;1.83;1.70;;;12.60;73.40;;;;;;4972998;28;20776;-77
2020/12/15 10:15:16;;;;;;;2.20;1.65;;;12.50;73.40;;;;;;4981820;28;20031;-77
2020/12/15 10:17:42;;;;;;;1.92;1.73;;;12.50;73.40;;;;;;4977811;28;20113;-78
2020/12/15 10:20:08;;;;;;;1.70;1.40;;;12.70;73.50;;;;;;4976540;28;20084;-78
2020/12/15 10:22:34;;;;;;;2.47;1.77;;;12.50;73.40;;;;;;4979856;28;20545;-78
2020/12/15 10:24:59;;;;;;;1.50;1.35;;;12.60;73.50;;;;;;4981232;28;20026;-78
2020/12/15 10:27:25;;;;;;;2.42;2.03;;;12.70;73.50;;;;;;4978262;28;20401;-77
2020/12/15 10:29:50;;;;;;;2.35;1.75;;;12.60;73.50;;;;;;4981058;28;20049;-77
2020/12/15 10:32:16;;;;;;;1.27;1.15;;;12.70;73.50;;;;;;4981717;28;20026;-76
2020/12/15 10:34:42;;;;;;;1.55;1.38;;;12.60;73.50;;;;;;4975421;28;20092;-78
2020/12/15 10:37:07;;;;;;;2.00;1.67;;;12.70;73.50;;;;;;4982707;28;20053;-78
2020/12/15 10:39:32;;;;;;;1.73;1.02;;;12.70;73.50;;;;;;4981282;28;20058;-77
2020/12/15 10:41:58;;;;;;;1.50;1.30;;;12.70;73.40;;;;;;4980031;28;20033;-77
2020/12/15 10:44:23;;;;;;;1.70;1.40;;;12.70;73.30;;;;;;4978377;28;20084;-79
2020/12/15 10:46:50;;;;;;;1.77;1.52;;;12.80;73.40;;;;;;4981064;28;20054;-78
2020/12/15 10:49:16;;;;;;;1.50;1.40;;;12.80;73.30;;;;;;4974376;28;20039;-79
2020/12/15 10:51:42;;;;;;;2.05;1.60;;;12.80;73.30;;;;;;4981903;28;20121;-77
2020/12/15 10:54:08;;;;;;;2.00;1.52;;;12.80;73.30;;;;;;4980778;28;20035;-77
2020/12/15 10:56:33;;;;;;;1.90;1.65;;;12.80;73.40;;;;;;4979249;28;20030;-77
2020/12/15 10:59:00;;;;;;;1.50;1.25;;;12.80;73.40;;;;;;4976333;28;20089;-77
2020/12/15 11:01:26;;;;;;;1.60;1.42;;;12.90;73.50;;;;;;4972749;28;20501;-78
2020/12/15 11:03:52;;;;;;;2.05;1.67;;;12.90;73.50;;;;;;4976588;28;20124;-78
2020/12/15 11:06:19;;;;;;;1.40;1.25;;;12.90;73.50;;;;;;4972563;28;20502;-79
2020/12/15 11:08:45;;;;;;;1.80;1.52;;;12.80;73.50;;;;;;4982197;28;20045;-77
2020/12/15 11:11:11;;;;;;;1.58;1.40;;;13.00;73.60;;;;;;4978012;28;20027;-77
2020/12/15 11:13:37;;;;;;;1.75;1.65;;;12.90;73.50;;;;;;4974221;28;20090;-76
2020/12/15 11:16:03;;;;;;;2.60;1.85;;;13.10;73.60;;;;;;4981234;28;20030;-76
2020/12/15 11:18:28;;;;;;;2.05;1.50;;;13.00;73.60;;;;;;4977353;28;20117;-77
2020/12/15 11:20:54;;;;;;;1.95;1.48;;;13.00;73.50;;;;;;4973191;28;20030;-76
2020/12/15 11:23:19;;;;;;;1.40;1.30;;;13.20;73.60;;;;;;4980408;28;20169;-76
2020/12/15 11:25:47;;;;;;;2.45;1.75;;;13.10;73.50;;;;;;4980387;28;20722;-78
2020/12/15 11:28:13;;;;;;;1.92;1.70;;;13.10;73.50;;;;;;4978614;28;20038;-78
2020/12/15 11:30:38;;;;;;;1.88;1.67;;;13.10;73.50;;;;;;4980686;28;20559;-79
2020/12/15 11:33:04;;;;;;;2.40;1.38;;;13.10;73.50;;;;;;4984201;28;20058;-77
2020/12/15 11:35:32;;;;;;;1.83;1.67;;;13.10;73.50;;;;;;4977664;28;20045;-77
2020/12/15 11:37:58;;;;;;;2.53;1.60;;;13.30;73.60;;;;;;4983074;28;20441;-77
2020/12/15 11:40:24;;;;;;;2.60;1.80;;;13.20;73.50;;;;;;4985581;28;20027;-78
2020/12/15 11:42:51;;;;;;;1.95;1.70;;;13.20;73.40;;;;;;4981864;28;20045;-77
2020/12/15 11:45:17;;;;;;;2.10;1.67;;;13.30;73.50;;;;;;4983768;28;20413;-77
2020/12/15 11:47:42;;;;;;;2.72;1.95;;;13.30;73.40;;;;;;4982330;28;20039;-77
2020/12/15 11:50:07;;;;;;;1.77;1.63;;;13.30;73.50;;;;;;4963933;28;20041;-77
2020/12/15 11:52:33;;;;;;;1.90;1.60;;;13.20;73.40;;;;;;4984609;28;20105;-77
2020/12/15 11:54:59;;;;;;;3.17;1.40;;;13.30;73.40;;;;;;4987677;28;20030;-78
2020/12/15 11:57:24;;;;;;;1.90;1.60;;;13.30;73.40;;;;;;4980197;28;20031;-77
2020/12/15 11:59:50;;;;;;;1.50;1.40;;;13.30;73.40;;;;;;4984325;28;20084;-77
2020/12/15 12:02:16;;;;;;;1.85;1.63;;;13.30;73.30;;;;;;4979428;28;20101;-77
2020/12/15 12:04:41;;;;;;;1.98;1.75;;;13.30;73.40;;;;;;4976086;28;20133;-77
2020/12/15 12:07:08;;;;;;;2.45;2.25;;;13.30;73.30;;;;;;4980507;28;20034;-77
2020/12/15 12:09:34;;;;;;;1.95;1.63;;;13.30;73.30;;;;;;4978847;28;20560;-78
2020/12/15 12:11:59;;;;;;;2.20;1.88;;;13.40;73.30;;;;;;4983551;28;20037;-77
2020/12/15 12:14:25;;;;;;;14.63;3.60;;;13.40;73.30;;;;;;4978630;28;20468;-77
2020/12/15 12:16:50;;;;;;;1.98;1.13;;;13.30;73.20;;;;;;4983234;28;20054;-77
2020/12/15 12:19:16;;;;;;;2.13;1.85;;;13.40;73.10;;;;;;4977848;28;20494;-77
2020/12/15 12:21:42;;;;;;;2.60;1.98;;;13.40;73.00;;;;;;4983185;28;20556;-77
2020/12/15 12:24:07;;;;;;;2.30;1.58;;;13.40;73.00;;;;;;4983094;28;20084;-77
2020/12/15 12:26:33;;;;;;;1.65;1.55;;;13.40;73.10;;;;;;4982906;28;20489;-78
2020/12/15 12:28:59;;;;;;;2.20;1.98;;;13.40;73.10;;;;;;4977803;28;20065;-77
2020/12/15 12:31:25;;;;;;;2.13;1.90;;;13.50;73.20;;;;;;4984248;28;20116;-77
2020/12/15 12:33:50;;;;;;;2.28;2.08;;;13.40;73.20;;;;;;4979299;28;20600;-77
2020/12/15 12:36:16;;;;;;;3.60;2.13;;;13.40;73.20;;;;;;4980575;28;20565;-77
2020/12/15 12:38:41;;;;;;;2.50;2.00;;;13.40;73.20;;;;;;4978381;28;20026;-78
2020/12/15 12:41:07;;;;;;;1.63;1.52;;;13.50;73.30;;;;;;4977078;28;20031;-78
2020/12/15 12:43:32;;;;;;;2.25;2.05;;;13.30;73.20;;;;;;4975233;28;20502;-77
2020/12/15 12:45:57;;;;;;;1.98;1.88;;;13.40;73.20;;;;;;4982551;28;20042;-78
2020/12/15 12:48:23;;;;;;;2.35;2.15;;;13.40;73.30;;;;;;4982300;28;20045;-78